Isle of Coll, United Kingdom
Current Conditions -  °F | °C
As of 3:50 PM on Thursday 30 Oct 2014 (Local Time) from EGPU Reporting Station
Broken Clouds Broken Clouds  
Wind Chill: 57°   Ceiling: 1500
Heat Index: 57°   Visibility: 6mi
Dew Point: 55°   Wind: 17mph
Humidity: 94%   Direction: 160°SSE
Pressure: 29.74"   Gusts: NA
Location:  56.62°N, 6.53°W
Report Text: EGPU 301550Z AUTO 16015KT 9999 BKN015/// SCT027/// 14/13 Q1007 REDZ
Loading
Personal Weather Stations






























Interactive Weather Map
Tropical Storm Tracking
New forecast layout! Learn more

10-Day Weather Forecast

Advertisements
Track Severe Weather on mobile